createdAt,value
2023-02-18T00:00:06.457Z,9.10
2023-02-18T00:05:09.864Z,8.90
2023-02-18T00:10:16.277Z,8.80
2023-02-18T00:15:21.455Z,8.60
2023-02-18T00:20:25.019Z,8.60
2023-02-18T00:25:28.433Z,8.60
2023-02-18T00:30:33.429Z,8.50
2023-02-18T00:35:37.210Z,8.40
2023-02-18T00:40:41.717Z,8.40
2023-02-18T00:45:46.816Z,8.40
2023-02-18T00:50:50.291Z,8.40
2023-02-18T00:55:53.592Z,8.30
2023-02-18T01:00:58.422Z,8.30
2023-02-18T01:06:02.088Z,8.30
2023-02-18T01:11:06.878Z,8.30
2023-02-18T01:16:12.451Z,8.30
2023-02-18T01:21:16.001Z,8.30
2023-02-18T01:26:19.448Z,8.30
2023-02-18T01:31:24.736Z,8.30
2023-02-18T01:36:28.227Z,8.30
2023-02-18T01:41:33.710Z,8.40
2023-02-18T01:46:38.924Z,8.40
2023-02-18T01:51:47.757Z,8.40
2023-02-18T01:56:56.428Z,8.40
2023-02-18T02:02:01.994Z,8.50
2023-02-18T02:07:07.063Z,8.50
2023-02-18T02:12:26.365Z,8.50
2023-02-18T02:17:40.590Z,8.60
2023-02-18T02:23:20.525Z,8.60
2023-02-18T02:28:50.992Z,8.70
2023-02-18T02:34:27.916Z,8.70
2023-02-18T02:39:39.723Z,8.70
2023-02-18T02:44:49.830Z,8.70
2023-02-18T02:50:03.005Z,8.80
2023-02-18T02:55:10.980Z,8.90
2023-02-18T03:00:21.102Z,8.90
2023-02-18T03:05:35.131Z,8.90
2023-02-18T03:10:48.141Z,9.00
2023-02-18T03:15:58.027Z,9.00
2023-02-18T03:21:08.986Z,9.00
2023-02-18T03:26:15.954Z,9.00
2023-02-18T03:31:26.821Z,9.00
2023-02-18T03:36:30.862Z,9.00
2023-02-18T03:41:36.880Z,9.00
2023-02-18T03:46:43.984Z,8.90
2023-02-18T03:51:47.798Z,8.90
2023-02-18T03:56:52.865Z,8.90
2023-02-18T04:01:56.461Z,8.80
2023-02-18T04:07:00.127Z,8.80
2023-02-18T04:12:05.507Z,8.80
2023-02-18T04:17:09.127Z,8.80
2023-02-18T04:22:12.844Z,8.80
2023-02-18T04:27:17.837Z,8.80
2023-02-18T04:32:21.628Z,8.80
2023-02-18T04:37:25.161Z,8.80
2023-02-18T04:42:30.407Z,8.80
2023-02-18T04:47:34.321Z,8.80
2023-02-18T04:52:37.944Z,8.80
2023-02-18T04:57:42.622Z,8.80
2023-02-18T05:02:46.729Z,8.80
2023-02-18T05:07:50.338Z,8.80
2023-02-18T05:12:55.275Z,8.80
2023-02-18T05:17:58.609Z,8.80
2023-02-18T05:23:01.903Z,8.80
2023-02-18T05:28:07.007Z,8.80
2023-02-18T05:33:10.882Z,8.80
2023-02-18T05:38:14.486Z,8.90
2023-02-18T05:43:19.580Z,8.90
2023-02-18T05:48:22.949Z,9.00
2023-02-18T05:53:26.505Z,9.00
2023-02-18T05:58:31.515Z,9.00
2023-02-18T06:03:35.754Z,9.10
2023-02-18T06:08:39.369Z,9.10
2023-02-18T06:13:44.421Z,9.20
2023-02-18T06:18:47.841Z,9.20
2023-02-18T06:23:51.520Z,9.10
2023-02-18T06:28:56.306Z,9.00
2023-02-18T06:33:59.870Z,9.00
2023-02-18T06:39:07.744Z,8.90
2023-02-18T06:44:12.707Z,8.90
2023-02-18T06:49:16.226Z,8.90
2023-02-18T06:54:19.878Z,9.00
2023-02-18T06:59:25.069Z,8.90
2023-02-18T07:04:28.729Z,9.00
2023-02-18T07:09:32.599Z,9.10
2023-02-18T07:14:37.573Z,9.10
2023-02-18T07:19:41.337Z,9.10
2023-02-18T07:24:45.262Z,9.20
2023-02-18T07:29:50.274Z,9.20
2023-02-18T07:34:54.304Z,9.30
2023-02-18T07:39:57.415Z,9.30
2023-02-18T07:45:02.060Z,9.40
2023-02-18T07:50:06.056Z,9.50
2023-02-18T07:55:10.222Z,9.60
2023-02-18T08:00:16.569Z,9.60
2023-02-18T08:05:19.971Z,9.70
2023-02-18T08:10:23.281Z,9.70
2023-02-18T08:15:27.936Z,9.80
2023-02-18T08:20:31.275Z,9.90
2023-02-18T08:25:35.286Z,10.10
2023-02-18T08:30:40.043Z,10.20
2023-02-18T08:35:44.521Z,10.30
2023-02-18T08:40:47.898Z,10.50
2023-02-18T08:45:53.036Z,10.50
2023-02-18T08:50:56.942Z,10.60
2023-02-18T08:56:00.172Z,10.70
2023-02-18T09:01:05.835Z,10.80
2023-02-18T09:06:10.052Z,11.00
2023-02-18T09:11:13.736Z,11.10
2023-02-18T09:16:20.061Z,11.10
2023-02-18T09:21:24.732Z,11.00
2023-02-18T09:26:28.279Z,10.80
2023-02-18T09:31:33.168Z,10.80
2023-02-18T09:36:36.414Z,10.80
2023-02-18T09:41:43.576Z,10.90
2023-02-18T09:46:52.755Z,11.10
2023-02-18T09:51:57.769Z,11.30
2023-02-18T09:57:02.654Z,11.50
2023-02-18T10:02:16.995Z,11.80
2023-02-18T10:07:28.379Z,12.10
2023-02-18T10:12:35.050Z,12.40
2023-02-18T10:17:39.856Z,12.50
2023-02-18T10:22:44.364Z,12.60
2023-02-18T10:27:49.984Z,12.90
2023-02-18T10:32:57.902Z,13.10
2023-02-18T10:38:09.022Z,13.30
2023-02-18T10:43:23.729Z,13.30
2023-02-18T10:48:40.600Z,13.10
2023-02-18T10:53:46.493Z,13.10
2023-02-18T10:58:50.004Z,13.30
2023-02-18T11:04:08.713Z,13.20
2023-02-18T11:09:37.157Z,13.00
2023-02-18T11:14:43.290Z,13.00
2023-02-18T11:19:54.863Z,12.90
2023-02-18T11:25:00.359Z,12.90
2023-02-18T11:30:05.217Z,12.80
2023-02-18T11:35:20.091Z,12.80
2023-02-18T11:40:27.056Z,12.90
2023-02-18T11:45:33.463Z,12.80
2023-02-18T11:50:38.135Z,12.80
2023-02-18T11:55:56.245Z,12.80
2023-02-18T12:01:04.485Z,12.70
2023-02-18T12:06:16.471Z,12.60
2023-02-18T12:11:28.084Z,12.60
2023-02-18T12:16:40.313Z,12.70
2023-02-18T12:21:55.777Z,12.80
2023-02-18T12:27:06.882Z,12.90
2023-02-18T12:32:25.417Z,12.90
2023-02-18T12:37:46.172Z,12.90
2023-02-18T12:42:56.862Z,12.90
2023-02-18T12:48:22.599Z,12.90
2023-02-18T12:53:51.094Z,12.90
2023-02-18T12:59:02.890Z,12.70
2023-02-18T13:04:27.983Z,12.70
2023-02-18T13:09:45.190Z,12.80
2023-02-18T13:14:51.709Z,12.80
2023-02-18T13:20:00.489Z,12.70
2023-02-18T13:25:05.398Z,12.70
2023-02-18T13:30:22.352Z,12.60
2023-02-18T13:35:30.562Z,12.60
2023-02-18T13:40:35.797Z,12.60
2023-02-18T13:45:41.015Z,12.70
2023-02-18T13:50:44.744Z,12.80
2023-02-18T13:55:56.913Z,12.90
2023-02-18T14:01:04.716Z,12.90
2023-02-18T14:06:18.164Z,12.90
2023-02-18T14:11:48.491Z,12.80
2023-02-18T14:17:31.273Z,12.60
2023-02-18T14:22:45.275Z,12.50
2023-02-18T14:27:52.983Z,12.40
2023-02-18T14:33:00.926Z,12.40
2023-02-18T14:38:38.750Z,12.50
2023-02-18T14:44:04.080Z,12.50
2023-02-18T14:49:33.506Z,12.50
2023-02-18T14:54:38.156Z,12.30
2023-02-18T14:59:43.853Z,12.40
2023-02-18T15:04:47.570Z,12.40
2023-02-18T15:09:54.230Z,12.30
2023-02-18T15:15:03.771Z,12.10
2023-02-18T15:20:09.072Z,12.00
2023-02-18T15:25:14.460Z,11.90
2023-02-18T15:30:27.897Z,11.80
2023-02-18T15:35:34.359Z,11.70
2023-02-18T15:40:40.560Z,11.70
2023-02-18T15:45:47.781Z,11.60
2023-02-18T15:50:54.683Z,11.50
2023-02-18T15:55:58.887Z,11.40
2023-02-18T16:01:05.647Z,11.40
2023-02-18T16:06:13.638Z,11.40
2023-02-18T16:11:16.962Z,11.30
2023-02-18T16:16:26.139Z,11.30
2023-02-18T16:21:34.526Z,11.30
2023-02-18T16:26:44.926Z,11.20
2023-02-18T16:31:49.624Z,11.10
2023-02-18T16:37:10.185Z,11.10
2023-02-18T16:42:14.456Z,11.10
2023-02-18T16:47:20.618Z,11.00
2023-02-18T16:52:23.913Z,11.00
2023-02-18T16:57:27.249Z,11.00
2023-02-18T17:02:32.573Z,11.00
2023-02-18T17:07:37.015Z,11.00
2023-02-18T17:12:42.717Z,10.90
2023-02-18T17:17:47.728Z,10.90
2023-02-18T17:22:51.536Z,10.90
2023-02-18T17:27:55.719Z,10.90
2023-02-18T17:33:03.365Z,10.90
2023-02-18T17:38:11.467Z,10.80
2023-02-18T17:43:17.357Z,10.80
2023-02-18T17:48:22.692Z,10.80
2023-02-18T17:53:26.474Z,10.80
2023-02-18T17:58:30.216Z,10.70
2023-02-18T18:03:35.319Z,10.60
2023-02-18T18:08:38.789Z,10.60
2023-02-18T18:13:42.369Z,10.50
2023-02-18T18:18:47.152Z,10.50
2023-02-18T18:23:51.038Z,10.50
2023-02-18T18:28:55.287Z,10.50
2023-02-18T18:34:00.446Z,10.40
2023-02-18T18:39:04.050Z,10.50
2023-02-18T18:44:08.012Z,10.50
2023-02-18T18:49:13.049Z,10.50
2023-02-18T18:54:16.685Z,10.40
2023-02-18T18:59:20.445Z,10.30
2023-02-18T19:04:26.279Z,10.20
2023-02-18T19:09:29.946Z,10.10
2023-02-18T19:14:33.733Z,10.00
2023-02-18T19:19:38.848Z,10.00
2023-02-18T19:24:43.284Z,10.00
2023-02-18T19:29:50.388Z,10.10
2023-02-18T19:34:55.325Z,10.00
2023-02-18T19:39:58.935Z,9.90
2023-02-18T19:45:02.210Z,9.90
2023-02-18T19:50:09.138Z,9.90
2023-02-18T19:55:12.928Z,10.00
2023-02-18T20:00:19.334Z,9.90
2023-02-18T20:05:24.045Z,9.70
2023-02-18T20:10:27.968Z,9.70
2023-02-18T20:15:31.471Z,9.70
2023-02-18T20:20:36.151Z,9.80
2023-02-18T20:25:40.619Z,9.90
2023-02-18T20:30:44.583Z,10.00
2023-02-18T20:35:58.681Z,10.10
2023-02-18T20:41:05.608Z,10.10
2023-02-18T20:46:11.725Z,10.10
2023-02-18T20:51:19.558Z,10.10
2023-02-18T20:56:23.262Z,10.10
2023-02-18T21:01:27.034Z,10.00
2023-02-18T21:06:31.719Z,9.90
2023-02-18T21:11:35.458Z,9.90
2023-02-18T21:16:39.774Z,9.90
2023-02-18T21:21:51.528Z,9.90
2023-02-18T21:26:55.333Z,9.90
2023-02-18T21:31:58.809Z,9.90
2023-02-18T21:37:03.886Z,9.90
2023-02-18T21:42:07.538Z,9.80
2023-02-18T21:47:11.613Z,9.70
2023-02-18T21:52:16.682Z,9.70
2023-02-18T21:57:22.373Z,9.70
2023-02-18T22:02:28.451Z,9.70
2023-02-18T22:07:33.195Z,9.70
2023-02-18T22:12:36.596Z,9.80
2023-02-18T22:17:40.343Z,9.80
2023-02-18T22:22:45.602Z,9.80
2023-02-18T22:27:48.961Z,9.80
2023-02-18T22:32:52.665Z,9.60
2023-02-18T22:37:58.497Z,9.50
2023-02-18T22:43:01.884Z,9.40
2023-02-18T22:48:05.940Z,9.40
2023-02-18T22:53:10.984Z,9.60
2023-02-18T22:58:14.538Z,9.60
2023-02-18T23:03:18.314Z,9.70
2023-02-18T23:08:23.589Z,9.80
2023-02-18T23:13:27.117Z,9.80
2023-02-18T23:18:32.277Z,9.80
2023-02-18T23:23:39.547Z,9.90
2023-02-18T23:28:49.154Z,9.80
2023-02-18T23:33:56.011Z,9.90
2023-02-18T23:39:02.693Z,9.90
2023-02-18T23:44:08.547Z,9.80
2023-02-18T23:49:15.888Z,9.80
2023-02-18T23:54:21.107Z,9.60
2023-02-18T23:59:24.777Z,9.80
